createdAt,value
2023-04-19T00:01:31.527Z,7.93
2023-04-19T00:03:36.599Z,8.68
2023-04-19T00:05:41.859Z,7.93
2023-04-19T00:07:47.348Z,7.55
2023-04-19T00:09:54.891Z,9.15
2023-04-19T00:11:59.805Z,8.70
2023-04-19T00:14:04.837Z,8.73
2023-04-19T00:16:11.013Z,7.85
2023-04-19T00:18:16.129Z,8.15
2023-04-19T00:20:21.119Z,8.18
2023-04-19T00:22:26.399Z,8.25
2023-04-19T00:26:39.000Z,8.02
2023-04-19T00:28:44.702Z,7.85
2023-04-19T00:30:49.697Z,8.57
2023-04-19T00:32:55.045Z,8.50
2023-04-19T00:35:02.868Z,8.40
2023-04-19T00:37:11.766Z,8.15
2023-04-19T00:39:18.324Z,8.23
2023-04-19T00:41:23.163Z,8.65
2023-04-19T00:43:30.686Z,8.35
2023-04-19T00:45:37.885Z,8.63
2023-04-19T00:47:43.224Z,9.27
2023-04-19T00:49:48.191Z,9.07
2023-04-19T00:51:54.753Z,8.60
2023-04-19T00:54:00.341Z,9.05
2023-04-19T00:56:08.290Z,7.70
2023-04-19T00:58:15.066Z,8.68
2023-04-19T01:00:23.264Z,9.45
2023-04-19T01:02:30.256Z,9.50
2023-04-19T01:04:35.384Z,9.45
2023-04-19T01:06:43.220Z,9.65
2023-04-19T01:08:49.296Z,9.25
2023-04-19T01:10:54.180Z,9.05
2023-04-19T01:12:59.625Z,9.40
2023-04-19T01:15:05.019Z,9.20
2023-04-19T01:17:13.693Z,9.13
2023-04-19T01:19:18.636Z,9.02
2023-04-19T01:21:23.905Z,9.73
2023-04-19T01:25:36.190Z,9.52
2023-04-19T01:27:44.282Z,9.35
2023-04-19T01:29:49.223Z,9.32
2023-04-19T01:31:55.524Z,9.23
2023-04-19T01:34:00.892Z,9.02
2023-04-19T01:36:06.099Z,9.80
2023-04-19T01:38:12.936Z,9.70
2023-04-19T01:40:22.354Z,10.02
2023-04-19T01:42:27.409Z,9.57
2023-04-19T01:44:32.304Z,9.02
2023-04-19T01:46:39.120Z,9.05
2023-04-19T01:48:44.456Z,9.50
2023-04-19T01:50:49.369Z,9.15
2023-04-19T01:52:54.244Z,8.13
2023-04-19T01:54:59.492Z,9.40
2023-04-19T01:57:06.946Z,9.55
2023-04-19T01:59:11.892Z,9.20
2023-04-19T02:01:17.024Z,10.48
2023-04-19T02:05:27.838Z,10.48
2023-04-19T02:07:32.751Z,11.18
2023-04-19T02:09:38.773Z,9.07
2023-04-19T02:11:43.863Z,9.18
2023-04-19T02:13:51.374Z,9.63
2023-04-19T02:15:56.321Z,10.00
2023-04-19T02:18:02.172Z,11.43
2023-04-19T02:20:09.405Z,10.32
2023-04-19T02:22:14.311Z,9.98
2023-04-19T02:24:19.254Z,9.07
2023-04-19T02:26:24.730Z,9.13
2023-04-19T02:28:29.701Z,9.23
2023-04-19T02:30:37.206Z,8.38
2023-04-19T02:32:42.180Z,8.93
2023-04-19T02:34:47.072Z,9.77
2023-04-19T02:36:52.177Z,8.80
2023-04-19T02:38:57.034Z,8.90
2023-04-19T02:41:04.552Z,8.25
2023-04-19T02:43:09.522Z,8.45
2023-04-19T02:45:14.704Z,9.32
2023-04-19T02:47:22.156Z,10.65
2023-04-19T02:49:27.264Z,9.45
2023-04-19T02:53:37.508Z,9.85
2023-04-19T02:55:42.917Z,10.38
2023-04-19T02:57:53.844Z,9.52
2023-04-19T03:02:04.157Z,10.20
2023-04-19T03:04:11.999Z,10.15
2023-04-19T03:06:18.433Z,10.52
2023-04-19T03:08:23.303Z,9.48
2023-04-19T03:10:28.335Z,9.30
2023-04-19T03:12:33.246Z,8.77
2023-04-19T03:14:38.134Z,8.88
2023-04-19T03:16:43.040Z,9.10
2023-04-19T03:18:49.572Z,8.60
2023-04-19T03:21:00.457Z,9.25
2023-04-19T03:23:11.015Z,9.77
2023-04-19T03:25:16.278Z,9.13
2023-04-19T03:27:25.712Z,9.30
2023-04-19T03:29:36.443Z,8.70
2023-04-19T03:31:45.260Z,8.93
2023-04-19T03:33:51.215Z,8.95
2023-04-19T03:36:00.761Z,10.30
2023-04-19T03:38:05.797Z,9.82
2023-04-19T03:40:11.704Z,10.43
2023-04-19T03:42:17.139Z,10.65
2023-04-19T03:44:43.351Z,11.25
2023-04-19T03:46:49.149Z,11.02
2023-04-19T03:48:58.261Z,11.40
2023-04-19T03:51:06.828Z,10.90
2023-04-19T03:53:12.458Z,11.48
2023-04-19T03:55:17.341Z,9.10
2023-04-19T03:57:22.378Z,10.35
2023-04-19T03:59:28.179Z,10.30
2023-04-19T04:01:33.587Z,10.15
2023-04-19T04:03:40.147Z,10.82
2023-04-19T04:05:45.707Z,10.23
2023-04-19T04:09:59.412Z,10.55
2023-04-19T04:14:10.116Z,10.55
2023-04-19T04:16:16.803Z,12.07
2023-04-19T04:18:22.236Z,11.00
2023-04-19T04:20:28.035Z,10.95
2023-04-19T04:22:43.904Z,11.82
2023-04-19T04:24:54.153Z,11.52
2023-04-19T04:27:06.220Z,12.68
2023-04-19T04:29:14.485Z,11.05
2023-04-19T04:31:21.631Z,10.15
2023-04-19T04:33:27.991Z,11.82
2023-04-19T04:35:33.191Z,10.00
2023-04-19T04:37:46.833Z,10.27
2023-04-19T04:42:00.531Z,10.75
2023-04-19T04:44:12.693Z,10.88
2023-04-19T04:46:19.201Z,11.15
2023-04-19T04:48:24.276Z,9.85
2023-04-19T04:50:29.226Z,10.57
2023-04-19T04:54:49.488Z,9.90
2023-04-19T04:57:05.057Z,10.20
2023-04-19T04:59:11.543Z,9.98
2023-04-19T05:01:21.720Z,13.15
2023-04-19T05:03:27.041Z,10.73
2023-04-19T05:05:36.917Z,10.75
2023-04-19T05:07:42.239Z,11.43
2023-04-19T05:09:47.389Z,11.18
2023-04-19T05:11:56.697Z,12.10
2023-04-19T05:14:05.065Z,12.05
2023-04-19T05:16:11.636Z,11.48
2023-04-19T05:18:19.523Z,12.20
2023-04-19T05:20:24.835Z,12.55
2023-04-19T05:22:38.701Z,11.60
2023-04-19T05:24:47.470Z,11.00
2023-04-19T05:26:54.416Z,13.57
2023-04-19T05:29:03.721Z,11.52
2023-04-19T05:31:31.508Z,10.43
2023-04-19T05:33:55.648Z,11.48
2023-04-19T05:36:00.699Z,11.60
2023-04-19T05:38:06.654Z,10.43
2023-04-19T05:40:13.832Z,10.23
2023-04-19T05:42:19.091Z,10.98
2023-04-19T05:44:24.137Z,10.18
2023-04-19T05:46:32.037Z,12.10
2023-04-19T05:48:37.416Z,10.05
2023-04-19T05:51:00.832Z,11.32
2023-04-19T05:53:41.402Z,10.75
2023-04-19T05:57:53.403Z,9.40
2023-04-19T06:00:03.540Z,10.63
2023-04-19T06:02:21.095Z,10.47
2023-04-19T06:04:26.375Z,11.40
2023-04-19T06:06:32.374Z,10.57
2023-04-19T06:08:37.412Z,10.85
2023-04-19T06:10:54.137Z,11.02
2023-04-19T06:13:02.620Z,11.40
2023-04-19T06:15:09.031Z,11.35
2023-04-19T06:17:16.693Z,10.82
2023-04-19T06:19:24.191Z,10.80
2023-04-19T06:21:30.001Z,11.13
2023-04-19T06:23:35.023Z,10.48
2023-04-19T06:25:39.976Z,10.13
2023-04-19T06:27:44.824Z,11.07
2023-04-19T06:29:51.223Z,10.88
2023-04-19T06:31:56.467Z,10.98
2023-04-19T06:34:01.363Z,12.00
2023-04-19T06:36:09.638Z,11.55
2023-04-19T06:38:14.645Z,10.85
2023-04-19T06:40:19.805Z,11.27
2023-04-19T06:42:26.174Z,9.75
2023-04-19T06:44:31.324Z,9.70
2023-04-19T06:48:41.084Z,11.10
2023-04-19T06:50:46.411Z,10.80
2023-04-19T06:52:53.890Z,11.57
2023-04-19T06:54:58.721Z,11.52
2023-04-19T06:57:03.739Z,11.18
2023-04-19T06:59:08.662Z,10.05
2023-04-19T07:01:14.618Z,11.43
2023-04-19T07:03:19.776Z,11.30
2023-04-19T07:05:25.009Z,12.65
2023-04-19T07:07:29.908Z,11.45
2023-04-19T07:09:37.455Z,12.93
2023-04-19T07:11:42.864Z,13.05
2023-04-19T07:13:47.770Z,13.73
2023-04-19T07:15:52.727Z,14.10
2023-04-19T07:17:57.736Z,12.90
2023-04-19T07:20:04.183Z,12.70
2023-04-19T07:22:09.427Z,14.05
2023-04-19T07:24:14.596Z,13.48
2023-04-19T07:26:22.262Z,15.55
2023-04-19T07:28:27.227Z,16.27
2023-04-19T07:30:32.140Z,15.20
2023-04-19T07:32:37.348Z,17.42
2023-04-19T07:34:43.844Z,16.60
2023-04-19T07:36:48.779Z,15.40
2023-04-19T07:38:53.723Z,14.63
2023-04-19T07:40:58.726Z,18.08
2023-04-19T07:43:06.923Z,20.30
2023-04-19T07:45:12.932Z,17.05
2023-04-19T07:47:17.884Z,18.63
2023-04-19T07:49:22.818Z,17.77
2023-04-19T07:51:27.753Z,18.58
2023-04-19T07:53:32.622Z,19.65
2023-04-19T07:55:37.534Z,17.38
2023-04-19T07:57:48.423Z,17.80
2023-04-19T07:59:58.253Z,18.75
2023-04-19T08:02:03.243Z,17.67
2023-04-19T08:04:08.661Z,19.27
2023-04-19T08:06:14.461Z,19.58
2023-04-19T08:08:19.573Z,22.17
2023-04-19T08:10:24.508Z,21.13
2023-04-19T08:12:37.334Z,23.88
2023-04-19T08:14:59.127Z,21.55
2023-04-19T08:17:22.874Z,22.20
2023-04-19T08:19:29.398Z,22.17
2023-04-19T08:21:40.692Z,21.13
2023-04-19T08:23:48.541Z,22.08
2023-04-19T08:25:53.870Z,19.42
2023-04-19T08:27:58.793Z,20.60
2023-04-19T08:30:03.797Z,20.40
2023-04-19T08:32:11.584Z,18.90
2023-04-19T08:34:16.654Z,20.55
2023-04-19T08:36:32.492Z,20.13
2023-04-19T08:38:46.688Z,20.42
2023-04-19T08:40:56.513Z,19.25
2023-04-19T08:43:02.136Z,19.38
2023-04-19T08:45:26.783Z,19.80
2023-04-19T08:47:42.196Z,17.92
2023-04-19T08:50:11.077Z,18.08
2023-04-19T08:52:25.588Z,17.40
2023-04-19T08:54:32.741Z,18.70
2023-04-19T08:56:37.715Z,18.25
2023-04-19T09:00:53.215Z,20.98
2023-04-19T09:03:01.086Z,18.13
2023-04-19T09:05:08.027Z,18.08
2023-04-19T09:07:25.889Z,16.55
2023-04-19T09:09:39.246Z,16.17
2023-04-19T09:11:48.388Z,14.90
2023-04-19T09:13:53.344Z,15.95
2023-04-19T09:16:00.900Z,14.48
2023-04-19T09:18:11.215Z,14.05
2023-04-19T09:20:16.062Z,12.13
2023-04-19T09:22:21.733Z,12.80
2023-04-19T09:26:58.447Z,11.52
2023-04-19T09:29:05.284Z,10.43
2023-04-19T09:31:38.906Z,10.45
2023-04-19T09:33:45.378Z,9.95
2023-04-19T09:35:50.489Z,9.57
2023-04-19T09:40:25.064Z,9.25
2023-04-19T09:47:25.415Z,9.48
2023-04-19T09:51:43.767Z,8.73
2023-04-19T09:53:48.739Z,9.07
2023-04-19T09:56:01.350Z,9.85
2023-04-19T09:58:07.389Z,9.75
2023-04-19T10:00:15.720Z,9.50
2023-04-19T10:02:22.254Z,10.27
2023-04-19T10:04:38.350Z,10.70
2023-04-19T10:09:06.677Z,9.55
2023-04-19T10:11:13.950Z,9.45
2023-04-19T10:13:26.680Z,9.65
2023-04-19T10:15:49.511Z,11.68
2023-04-19T10:17:58.005Z,10.35
2023-04-19T10:20:10.815Z,9.25
2023-04-19T10:22:18.499Z,9.85
2023-04-19T10:24:24.097Z,9.85
2023-04-19T10:26:29.222Z,8.45
2023-04-19T10:28:34.356Z,9.80
2023-04-19T10:32:45.797Z,9.52
2023-04-19T10:34:50.755Z,9.48
2023-04-19T10:36:55.732Z,9.90
2023-04-19T10:39:04.155Z,9.85
2023-04-19T10:41:15.425Z,8.48
2023-04-19T10:43:21.893Z,8.63
2023-04-19T10:45:36.919Z,8.05
2023-04-19T10:47:44.671Z,8.23
2023-04-19T10:49:49.787Z,9.48
2023-04-19T10:51:55.065Z,8.70
2023-04-19T10:54:04.179Z,8.80
2023-04-19T10:56:09.462Z,8.65
2023-04-19T11:00:25.831Z,8.32
2023-04-19T11:02:33.554Z,7.88
2023-04-19T11:05:04.588Z,6.70
2023-04-19T11:07:10.731Z,6.85
2023-04-19T11:09:25.175Z,6.97
2023-04-19T11:11:31.279Z,7.32
2023-04-19T11:13:39.202Z,7.45
2023-04-19T11:15:46.287Z,7.18
2023-04-19T11:18:08.934Z,7.07
2023-04-19T11:20:16.841Z,5.88
2023-04-19T11:22:21.768Z,6.30
2023-04-19T11:24:29.304Z,5.82
2023-04-19T11:26:34.264Z,6.03
2023-04-19T11:28:39.194Z,5.72
2023-04-19T11:30:44.083Z,5.75
2023-04-19T11:32:50.320Z,5.32
2023-04-19T11:34:55.241Z,5.50
2023-04-19T11:37:00.191Z,4.93
2023-04-19T11:39:05.134Z,5.05
2023-04-19T11:41:12.697Z,4.88
2023-04-19T11:43:17.677Z,5.10
2023-04-19T11:47:50.570Z,4.00
2023-04-19T11:49:57.571Z,3.80
2023-04-19T11:52:05.534Z,4.10
2023-04-19T11:54:17.123Z,4.13
2023-04-19T11:56:24.943Z,4.13
2023-04-19T11:58:33.266Z,3.85
2023-04-19T12:00:38.779Z,3.88
2023-04-19T12:02:45.794Z,3.75
2023-04-19T12:04:51.175Z,3.72
2023-04-19T12:07:01.390Z,3.45
2023-04-19T12:09:10.842Z,3.95
2023-04-19T12:11:16.776Z,3.50
2023-04-19T12:13:24.228Z,2.85
2023-04-19T12:15:44.524Z,2.45
2023-04-19T12:18:07.135Z,2.22
2023-04-19T12:20:15.009Z,2.17
2023-04-19T12:22:24.352Z,2.13
2023-04-19T12:24:29.394Z,2.03
2023-04-19T12:26:34.543Z,1.90
2023-04-19T12:28:42.659Z,1.80
2023-04-19T12:30:47.731Z,1.70
2023-04-19T12:32:55.632Z,2.00
2023-04-19T12:35:00.615Z,1.88
2023-04-19T12:37:06.108Z,1.90
2023-04-19T12:39:11.093Z,1.80
2023-04-19T12:43:21.144Z,2.03
2023-04-19T12:47:33.748Z,1.80
2023-04-19T12:49:39.192Z,1.67
2023-04-19T12:51:44.913Z,1.30
2023-04-19T12:53:51.096Z,1.50
2023-04-19T12:55:55.968Z,1.73
2023-04-19T12:58:02.318Z,1.67
2023-04-19T13:00:10.741Z,1.60
2023-04-19T13:02:18.333Z,1.90
2023-04-19T13:04:23.821Z,1.70
2023-04-19T13:06:29.612Z,1.65
2023-04-19T13:08:44.662Z,1.67
2023-04-19T13:10:52.392Z,1.52
2023-04-19T13:15:06.649Z,1.88
2023-04-19T13:17:11.744Z,1.67
2023-04-19T13:21:24.283Z,1.50
2023-04-19T13:23:29.305Z,1.58
2023-04-19T13:25:34.246Z,1.50
2023-04-19T13:27:43.143Z,1.80
2023-04-19T13:29:48.313Z,1.52
2023-04-19T13:31:55.355Z,1.75
2023-04-19T13:34:00.849Z,1.40
2023-04-19T13:36:10.378Z,1.58
2023-04-19T13:38:15.413Z,1.75
2023-04-19T13:40:20.518Z,1.58
2023-04-19T13:42:25.823Z,1.50
2023-04-19T13:44:31.304Z,1.50
2023-04-19T13:46:36.614Z,1.42
2023-04-19T13:48:41.653Z,1.90
2023-04-19T13:50:51.614Z,2.13
2023-04-19T13:52:59.398Z,3.80
2023-04-19T13:55:04.325Z,3.00
2023-04-19T13:57:09.578Z,2.20
2023-04-19T14:01:19.296Z,5.97
2023-04-19T14:05:30.347Z,2.30
2023-04-19T14:07:35.509Z,2.95
2023-04-19T14:11:49.101Z,2.40
2023-04-19T14:13:54.195Z,2.42
2023-04-19T14:15:59.095Z,2.45
2023-04-19T14:18:05.158Z,2.20
2023-04-19T14:20:13.297Z,2.53
2023-04-19T14:22:19.464Z,2.30
2023-04-19T14:24:24.731Z,2.17
2023-04-19T14:26:32.214Z,2.08
2023-04-19T14:28:37.062Z,2.10
2023-04-19T14:30:42.202Z,2.35
2023-04-19T14:34:59.028Z,2.17
2023-04-19T14:37:03.944Z,2.60
2023-04-19T14:39:10.305Z,2.63
2023-04-19T14:41:15.374Z,2.60
2023-04-19T14:43:22.899Z,2.10
2023-04-19T14:45:28.096Z,2.47
2023-04-19T14:49:37.889Z,2.67
2023-04-19T14:51:45.140Z,2.40
2023-04-19T14:53:50.105Z,2.40
2023-04-19T14:55:58.321Z,2.33
2023-04-19T15:00:12.603Z,2.47
2023-04-19T15:02:17.757Z,2.28
2023-04-19T15:06:27.955Z,1.80
2023-04-19T15:08:33.025Z,2.28
2023-04-19T15:10:39.144Z,2.05
2023-04-19T15:12:44.254Z,2.28
2023-04-19T15:14:49.171Z,2.20
2023-04-19T15:16:56.702Z,2.55
2023-04-19T15:19:02.524Z,2.35
2023-04-19T15:21:08.099Z,2.20
2023-04-19T15:23:13.963Z,2.20
2023-04-19T15:25:18.823Z,2.00
2023-04-19T15:27:23.899Z,2.00
2023-04-19T15:29:28.790Z,1.80
2023-04-19T15:32:05.545Z,1.90
2023-04-19T15:34:10.907Z,2.10
2023-04-19T15:38:20.765Z,2.03
2023-04-19T15:42:30.538Z,1.88
2023-04-19T15:44:36.000Z,2.45
2023-04-19T15:46:40.948Z,2.20
2023-04-19T15:48:49.716Z,2.10
2023-04-19T15:50:54.676Z,3.15
2023-04-19T15:53:00.023Z,1.80
2023-04-19T15:55:05.052Z,2.00
2023-04-19T15:57:09.919Z,1.85
2023-04-19T15:59:15.041Z,2.08
2023-04-19T16:03:25.187Z,1.95
2023-04-19T16:05:32.758Z,2.05
2023-04-19T16:07:37.974Z,2.42
2023-04-19T16:11:48.124Z,2.40
2023-04-19T16:15:57.816Z,2.95
2023-04-19T16:18:02.861Z,2.17
2023-04-19T16:20:10.427Z,1.85
2023-04-19T16:22:17.875Z,2.20
2023-04-19T16:24:22.874Z,2.30
2023-04-19T16:26:29.064Z,2.30
2023-04-19T16:30:38.723Z,2.40
2023-04-19T16:32:44.347Z,2.00
2023-04-19T16:34:49.225Z,2.20
2023-04-19T16:36:54.221Z,2.53
2023-04-19T16:39:02.117Z,2.38
2023-04-19T16:41:07.436Z,2.47
2023-04-19T16:43:12.309Z,1.95
2023-04-19T16:45:18.750Z,2.60
2023-04-19T16:47:24.561Z,2.28
2023-04-19T16:49:29.728Z,2.80
2023-04-19T16:51:34.658Z,2.80
2023-04-19T16:53:39.705Z,2.20
2023-04-19T16:55:47.328Z,2.40
2023-04-19T16:57:53.936Z,2.13
2023-04-19T16:59:58.844Z,2.35
2023-04-19T17:02:04.173Z,2.60
2023-04-19T17:04:09.332Z,2.92
2023-04-19T17:06:14.807Z,2.50
2023-04-19T17:08:21.625Z,3.08
2023-04-19T17:10:27.544Z,3.00
2023-04-19T17:12:35.185Z,3.10
2023-04-19T17:14:42.228Z,2.75
2023-04-19T17:16:47.163Z,2.60
2023-04-19T17:18:52.163Z,2.40
2023-04-19T17:20:57.333Z,2.83
2023-04-19T17:23:02.382Z,2.85
2023-04-19T17:25:08.051Z,2.42
2023-04-19T17:27:13.337Z,2.58
2023-04-19T17:31:25.595Z,2.83
2023-04-19T17:33:30.743Z,2.83
2023-04-19T17:35:35.702Z,3.17
2023-04-19T17:37:40.695Z,2.78
2023-04-19T17:39:47.984Z,3.33
2023-04-19T17:41:52.858Z,2.80
2023-04-19T17:43:57.728Z,2.63
2023-04-19T17:46:05.365Z,3.30
2023-04-19T17:48:10.611Z,3.17
2023-04-19T17:50:16.758Z,3.42
2023-04-19T17:52:21.951Z,3.08
2023-04-19T17:54:26.893Z,3.10
2023-04-19T17:56:31.737Z,3.67
2023-04-19T17:58:37.336Z,3.30
2023-04-19T18:00:42.932Z,4.97
2023-04-19T18:02:50.533Z,7.32
2023-04-19T18:04:55.997Z,3.30
2023-04-19T18:07:01.061Z,3.35
2023-04-19T18:09:09.596Z,4.90
2023-04-19T18:11:15.291Z,3.33
2023-04-19T18:13:20.195Z,3.13
2023-04-19T18:15:25.097Z,2.97
2023-04-19T18:17:30.086Z,3.10
2023-04-19T18:19:37.766Z,3.22
2023-04-19T18:21:44.788Z,3.85
2023-04-19T18:23:52.682Z,2.90
2023-04-19T18:25:58.690Z,3.75
2023-04-19T18:28:03.645Z,3.65
2023-04-19T18:30:10.112Z,3.30
2023-04-19T18:32:15.132Z,3.63
2023-04-19T18:36:28.281Z,3.17
2023-04-19T18:38:33.168Z,3.65
2023-04-19T18:40:38.153Z,3.47
2023-04-19T18:42:43.098Z,3.45
2023-04-19T18:46:58.963Z,3.85
2023-04-19T18:49:03.987Z,4.07
2023-04-19T18:51:11.814Z,3.85
2023-04-19T18:53:19.475Z,3.80
2023-04-19T18:55:24.600Z,3.90
2023-04-19T18:57:34.159Z,3.60
2023-04-19T18:59:42.598Z,3.35
2023-04-19T19:01:48.709Z,3.83
2023-04-19T19:06:05.982Z,3.35
2023-04-19T19:08:11.311Z,3.50
2023-04-19T19:10:21.914Z,3.55
2023-04-19T19:12:28.147Z,3.20
2023-04-19T19:14:35.802Z,3.63
2023-04-19T19:16:51.261Z,3.50
2023-04-19T19:18:56.727Z,3.72
2023-04-19T19:21:02.358Z,3.22
2023-04-19T19:23:07.320Z,3.40
2023-04-19T19:25:13.631Z,3.72
2023-04-19T19:27:21.162Z,3.40
2023-04-19T19:29:26.060Z,2.90
2023-04-19T19:31:31.312Z,3.25
2023-04-19T19:35:43.096Z,3.42
2023-04-19T19:37:50.380Z,3.35
2023-04-19T19:40:03.815Z,3.20
2023-04-19T19:42:10.284Z,3.20
2023-04-19T19:44:18.419Z,3.33
2023-04-19T19:46:24.291Z,3.38
2023-04-19T19:48:30.512Z,3.58
2023-04-19T19:52:44.965Z,3.55
2023-04-19T19:54:49.943Z,3.80
2023-04-19T19:59:03.249Z,4.15
2023-04-19T20:01:10.865Z,26.20
2023-04-19T20:03:24.897Z,9.27
2023-04-19T20:05:33.954Z,7.97
2023-04-19T20:10:05.518Z,3.40
2023-04-19T20:12:12.814Z,3.30
2023-04-19T20:14:17.781Z,3.67
2023-04-19T20:16:25.385Z,3.55
2023-04-19T20:18:30.606Z,3.83
2023-04-19T20:20:35.630Z,3.67
2023-04-19T20:24:47.161Z,6.68
2023-04-19T20:26:52.219Z,4.32
2023-04-19T20:28:57.430Z,3.90
2023-04-19T20:31:02.505Z,3.28
2023-04-19T20:33:10.208Z,3.53
2023-04-19T20:35:15.237Z,4.35
2023-04-19T20:37:22.686Z,3.90
2023-04-19T20:39:27.931Z,4.22
2023-04-19T20:43:37.599Z,5.07
2023-04-19T20:45:43.864Z,5.38
2023-04-19T20:47:48.865Z,4.72
2023-04-19T20:49:56.376Z,4.57
2023-04-19T20:52:01.313Z,4.10
2023-04-19T20:54:06.330Z,3.90
2023-04-19T20:56:11.287Z,3.88
2023-04-19T20:58:16.289Z,4.55
2023-04-19T21:00:21.803Z,4.28
2023-04-19T21:02:26.807Z,4.53
2023-04-19T21:04:32.104Z,3.50
2023-04-19T21:06:39.654Z,3.63
2023-04-19T21:08:44.530Z,4.13
2023-04-19T21:10:49.429Z,4.32
2023-04-19T21:12:54.372Z,4.75
2023-04-19T21:14:59.236Z,4.18
2023-04-19T21:17:04.707Z,3.67
2023-04-19T21:19:09.644Z,4.10
2023-04-19T21:21:14.481Z,3.78
2023-04-19T21:23:21.921Z,4.75
2023-04-19T21:25:27.019Z,4.43
2023-04-19T21:27:34.321Z,4.35
2023-04-19T21:29:39.217Z,4.40
2023-04-19T21:31:44.233Z,4.10
2023-04-19T21:33:49.193Z,4.60
2023-04-19T21:35:54.100Z,5.30
2023-04-19T21:37:59.014Z,5.00
2023-04-19T21:40:07.336Z,4.88
2023-04-19T21:42:12.178Z,5.53
2023-04-19T21:44:17.107Z,6.65
2023-04-19T21:46:22.044Z,5.05
2023-04-19T21:48:27.080Z,4.78
2023-04-19T21:50:35.019Z,4.60
2023-04-19T21:52:42.837Z,4.60
2023-04-19T21:54:48.843Z,4.30
2023-04-19T21:56:57.839Z,4.38
2023-04-19T21:59:02.872Z,4.13
2023-04-19T22:01:07.973Z,4.25
2023-04-19T22:03:12.937Z,6.68
2023-04-19T22:05:18.172Z,6.57
2023-04-19T22:09:29.105Z,6.28
2023-04-19T22:11:34.289Z,5.90
2023-04-19T22:13:41.741Z,5.45
2023-04-19T22:15:46.764Z,5.35
2023-04-19T22:17:52.159Z,5.18
2023-04-19T22:19:59.223Z,6.50
2023-04-19T22:22:04.062Z,6.20
2023-04-19T22:24:10.173Z,5.95
2023-04-19T22:26:15.032Z,6.13
2023-04-19T22:28:20.056Z,5.97
2023-04-19T22:30:27.536Z,6.57
2023-04-19T22:32:32.492Z,6.53
2023-04-19T22:34:37.407Z,6.82
2023-04-19T22:36:42.975Z,5.93
2023-04-19T22:38:48.035Z,6.55
2023-04-19T22:40:52.990Z,6.32
2023-04-19T22:42:57.885Z,7.05
2023-04-19T22:45:02.776Z,6.22
2023-04-19T22:47:12.011Z,6.22
2023-04-19T22:49:17.096Z,6.57
2023-04-19T22:53:27.548Z,7.32
2023-04-19T22:55:32.593Z,7.72
2023-04-19T22:57:37.420Z,6.40
2023-04-19T22:59:42.709Z,6.72
2023-04-19T23:01:47.657Z,7.68
2023-04-19T23:03:59.742Z,6.22
2023-04-19T23:06:04.737Z,7.35
2023-04-19T23:08:09.585Z,7.03
2023-04-19T23:10:15.141Z,6.38
2023-04-19T23:12:20.161Z,6.50
2023-04-19T23:14:25.150Z,6.55
2023-04-19T23:16:30.247Z,6.50
2023-04-19T23:18:35.475Z,6.25
2023-04-19T23:20:45.736Z,5.90
2023-04-19T23:22:50.693Z,5.97
2023-04-19T23:24:55.650Z,6.25
2023-04-19T23:27:00.480Z,6.15
2023-04-19T23:29:05.408Z,5.57
2023-04-19T23:31:10.262Z,5.97
2023-04-19T23:33:15.156Z,6.00
2023-04-19T23:35:20.130Z,5.43
2023-04-19T23:37:27.613Z,6.20
2023-04-19T23:39:32.472Z,5.75
2023-04-19T23:41:37.420Z,5.20
2023-04-19T23:43:42.579Z,5.85
2023-04-19T23:45:47.389Z,4.95
2023-04-19T23:47:52.843Z,5.10
2023-04-19T23:49:57.798Z,6.20
2023-04-19T23:52:02.684Z,6.35
2023-04-19T23:54:10.231Z,6.32
2023-04-19T23:56:15.114Z,6.15
2023-04-19T23:58:19.967Z,6.20
